Andersonburg, Pennsylvania
Current Conditions -  °F | °C
As of 12:56 AM on Wednesday 26 Nov 2014 (Local Time) from KCXY Reporting Station
Clear Clear  
Wind Chill: 39°   Ceiling: Unl
Heat Index: 39°   Visibility: 10mi
Dew Point: 33°   Wind: 3mph
Humidity: 79%   Direction: 240°WSW
Pressure: 30.18"   Gusts: NA
Location:  40.3674°N, 77.4381°W
Report Text: KCXY 260556Z AUTO 24003KT 10SM CLR 04/01 A3018 RMK AO2 SLP222 T00390006 10067 20028 50016
Loading
Personal Weather Stations






























Interactive Weather Map New forecast layout! Learn more

10-Day Weather Forecast

Advertisements
Track Severe Weather on mobile